Kezdőlap
METAR-TAF:

METAR-TAF

Repülőterek :

Zágráb, Horvátország

Zágráb-Franjo Tuđman repülőtér

földrajzi szélesség: 45-44N, földrajzi hosszúság: 016-04E, magasság: 106 m

Jelenlegi meteorológiai megfigyelések

A jelentés 16 perccel ezelõtt készült, 13:30 UTC
Északkeleti szél 4 kt, északi és délkeleti között változik
Hőmérséklet 24°C
Páratartalom 38%
Légköri nyomás 1027 hPa
Látótávolság 10 km, vagy több
felhőtlen 1500 m magasságban, és nincs gomolyfelhõ

METAR: LDZA 191330Z 05004KT 350V130 CAVOK 24/09 Q1027 NOSIG

Idő: 15:46 (13:46 UTC)

Előrejelzés

A jelentés 2 órával és 21 perccel ezelõtt készült, 11:25 UTC
Az előrejelzés 19-én 12 óra UTC és 20-én 12 óra UTC között érvényes
Északkeleti szél 5 kt
Látótávolság 10 km, vagy több
felhőtlen 1500 m magasságban, és nincs gomolyfelhõ

TAF: LDZA 191125Z 1912/2012 05005KT CAVOK TX23/1913Z TN10/2002Z

Meteorológiai megfigyelések és előrejelzések több, mint 4000 repülőtéren (METAR és TAF jelentéseket).

A térképen piros és sárga pontok jelzik az elérhető meteorológiai állomásokat.

Mozgassa az egeret a pont fölött, hogy megjelenjen az állomás neve.

Azután kattintson az időjárási megfigyelések és előrejelzések megtekintéséhez.

A térkép megváltoztatása: kattintson a fekete keresztel jelölt zöld gombra ráközelítéshez, a vonallal jelölt zöld gombra távolításhoz, vagy a zöld nyilakra a szomszédos térképek eléréséhez.


METAR-TAF: